• Join FlightAware (Why Join?)
  • Login
  • US Flag 
09:23AM EST


 

Airport Tracker/Info


-or-


 

Live Flight TrackerFlight Track Log ✈ SWA4879 ✈ 20-Apr-2013 ✈ KDEN - KGEG

Flight Track Log - Related Links

Times and Time Zones

All times are in EDT time to prevent confusion due to time zone crossing. See the SWA4879 flight status page for this flight to view local times or setup timezone preferences in your user account.

Time Position Orientation Groundspeed Altitude Reporting Facility
EDT Latitude Longitude Course Direction KTS MPH feet Rate Location/Type
10:28PM 39.9000 -104.5167 323° Northwest 236 272 9,000  Level Denver TRACON
10:29PM 39.9167 -104.4333 75° East 294 338 10,100 1,860 Climbing Denver TRACON
10:30PM 40.0167 -104.4500 353° North 344 396 12,800 3,180 Climbing Denver TRACON
10:32PM 40.1278 -104.5386 329° Northwest 314 361 18,500 3,420 Climbing Denver Center
10:33PM 40.2722 -104.5762 327° Northwest  Level FlightAware Approximate
10:33PM 40.2028 -104.6003 328° Northwest 319 367 21,400  Level Denver Center
10:34PM 40.3476 -104.6642 323° Northwest  Level FlightAware Approximate
10:34PM 40.2819 -104.6656 328° Northwest 337 388 24,000  Level Denver Center
10:35PM 40.3608 -104.7358 326° Northwest 338 389 26,300 2,160 Climbing Denver Center
10:36PM 40.4269 -104.8339 312° West 353 406 28,500 1,620 Climbing Denver Center
10:37PM 40.4964 -104.9331 313° West 366 421 29,600 900 Climbing Denver Center
10:38PM 40.5742 -105.0464 312° West 410 472 30,400 1,440 Climbing Denver Center
10:39PM 40.6522 -105.1567 313° West 407 468 32,600 2,100 Climbing Denver Center
10:40PM 40.7311 -105.2711 312° West 413 475 34,700 1,800 Climbing Denver Center
10:41PM 40.8067 -105.3800 313° West 403 464 36,300 1,320 Climbing Denver Center
10:42PM 40.8825 -105.4919 312° West 405 466 37,500 1,200 Climbing Denver Center
10:43PM 40.9589 -105.6022 313° West 404 465 38,800 1,080 Climbing Denver Center
10:44PM 41.0328 -105.7108 312° West 400 460 39,700 600 Climbing Denver Center
10:45PM 41.1164 -105.8361 312° West 405 466 40,100 180 Climbing Denver Center
10:46PM 41.1900 -105.9444 312° West 410 472 40,100  Level Denver Center
10:47PM 41.2625 -106.0531 312° West 411 473 40,100  Level Denver Center
10:48PM 41.3478 -106.1797 312° West 411 473 40,100  Level Denver Center
10:49PM 41.4203 -106.2900 311° West 414 476 40,100  Level Denver Center
10:50PM 41.4892 -106.3931 312° West 401 461 40,100  Level Denver Center
10:51PM 41.5675 -106.5128 311° West 390 449 40,100  Level Denver Center
10:52PM 41.6383 -106.6192 312° West 400 460 40,100  Level Denver Center
10:53PM 41.7083 -106.7269 311° West 400 460 40,100  Level Denver Center
10:54PM 41.7908 -106.8503 312° West 399 459 40,100  Level Denver Center
10:55PM 41.8611 -106.9581 311° West 402 463 40,100  Level Denver Center
10:56PM 41.9411 -107.0833 311° West 398 458 40,100  Level Denver Center
10:57PM 42.0114 -107.1900 312° West 398 458 40,100  Level Denver Center
10:58PM 42.0794 -107.2972 311° West 396 456 40,100  Level Denver Center
10:59PM 42.1586 -107.4214 311° West 393 452 40,100  Level Denver Center
11:00PM 42.2272 -107.5292 311° West 397 457 40,100  Level Denver Center
11:01PM 42.2947 -107.6350 311° West 392 451 40,100  Level Denver Center
11:02PM 42.3742 -107.7606 311° West 393 452 40,100  Level Denver Center
11:03PM 42.4411 -107.8683 310° West 393 452 40,100  Level Salt Lake Center
11:04PM 42.5078 -107.9742 311° West 387 445 40,100  Level Salt Lake Center
11:05PM 42.5869 -108.1019 310° West 394 453 40,100  Level Salt Lake Center
11:06PM 42.6544 -108.2089 311° West 392 451 40,100  Level Salt Lake Center
11:07PM 42.7208 -108.3161 310° West 391 450 40,100  Level Salt Lake Center
11:08PM 42.7986 -108.4425 310° West 393 452 40,100  Level Salt Lake Center
11:09PM 42.8650 -108.5506 310° West 390 449 40,100  Level Salt Lake Center
11:10PM 42.9314 -108.6589 310° West 390 449 40,100  Level Salt Lake Center
11:11PM 43.0061 -108.7794 310° West 386 444 40,100 -60 Level Salt Lake Center
11:12PM 43.0733 -108.8900 310° West 392 451 40,000  Descending Salt Lake Center
11:13PM 43.1514 -109.0189 310° West 392 451 40,100  Climbing Salt Lake Center
11:14PM 43.2169 -109.1275 310° West 388 447 40,100  Level Salt Lake Center
11:15PM 43.2817 -109.2344 310° West 383 441 40,100  Level Salt Lake Center
11:16PM 43.3572 -109.3603 310° West 383 441 40,100  Level Salt Lake Center
11:17PM 43.4217 -109.4678 310° West 380 437 40,100  Level Salt Lake Center
11:18PM 43.4875 -109.5786 309° West 386 444 40,100  Level Salt Lake Center
11:19PM 43.5644 -109.7075 310° West 387 445 40,100  Level Salt Lake Center
11:20PM 43.6303 -109.8158 310° West 385 443 40,100  Level Salt Lake Center
11:21PM 43.6933 -109.9244 309° West 381 438 40,100  Level Salt Lake Center
11:22PM 43.7681 -110.0511 309° West 381 438 40,100  Level Salt Lake Center
11:23PM 43.8328 -110.1608 309° West 383 441 40,100  Level Salt Lake Center
11:24PM 43.8969 -110.2725 309° West 385 443 40,100  Level Salt Lake Center
11:26PM 43.9711 -110.4017 309° West 384 442 40,100  Level Salt Lake Center
11:27PM 44.0350 -110.5100 309° West 381 438 40,100  Level Salt Lake Center
11:28PM 44.0978 -110.6222 308° West 383 441 40,100  Level Salt Lake Center
11:29PM 44.1717 -110.7497 309° West 381 438 40,100  Level Salt Lake Center
11:30PM 44.2347 -110.8614 308° West 382 440 40,100  Level Salt Lake Center
11:31PM 44.2989 -110.9722 309° West 384 442 40,100  Level Salt Lake Center
11:32PM 44.3725 -111.1031 308° West 383 441 40,100  Level Salt Lake Center
11:33PM 44.4356 -111.2139 309° West 381 438 40,100  Level Salt Lake Center
11:34PM 44.4969 -111.3225 308° West 376 433 40,100  Level Salt Lake Center
11:35PM 44.5647 -111.4453 308° West 365 420 40,100  Level Salt Lake Center
11:36PM 44.6328 -111.5686 308° West 373 429 40,100  Level Salt Lake Center
11:37PM 44.6950 -111.6817 308° West 380 437 40,100  Level Salt Lake Center
11:38PM 44.7542 -111.7881 308° West 366 421 40,100  Level Salt Lake Center
11:39PM 44.8225 -111.9122 308° West 361 415 40,100  Level Salt Lake Center
11:40PM 44.8825 -112.0219 308° West 366 421 40,100  Level Salt Lake Center
11:41PM 44.9428 -112.1347 307° West 374 430 40,100  Level Salt Lake Center
11:42PM 45.0167 -112.2681 308° West 385 443 40,100  Level Salt Lake Center
11:43PM 45.0764 -112.3800 307° West 375 432 40,100  Level Salt Lake Center
11:44PM 45.1386 -112.4914 308° West 376 433 40,100  Level Salt Lake Center
11:45PM 45.2114 -112.6281 307° West 386 444 40,100  Level Salt Lake Center
11:46PM 45.2717 -112.7417 307° West 379 436 40,100 -60 Level Salt Lake Center
11:47PM 45.3297 -112.8514 307° West 367 422 40,000  Descending Salt Lake Center
11:48PM 45.3875 -112.9633 306° West 360 414 40,100  Climbing Salt Lake Center
11:49PM 45.4514 -113.0831 307° West 377 434 40,100  Level Salt Lake Center
11:50PM 45.5161 -113.2067 307° West 385 443 40,100  Level Salt Lake Center
11:51PM 45.5806 -113.3292 307° West 386 444 40,100  Level Salt Lake Center
11:52PM 45.6453 -113.4533 307° West 388 447 40,100  Level Salt Lake Center
11:53PM 45.7094 -113.5772 307° West 387 445 40,100 -60 Level Salt Lake Center
11:54PM 45.7839 -113.7206 307° West 383 441 40,000 -60 Descending Salt Lake Center
11:55PM 45.8469 -113.8419 307° West 383 441 40,000  Level Salt Lake Center
11:56PM 45.9122 -113.9681 307° West 391 450 40,000  Level Salt Lake Center
11:57PM 45.9750 -114.0942 306° West 390 449 40,000  Level Salt Lake Center
11:58PM 46.0389 -114.2211 306° West 392 451 40,000  Level Salt Lake Center
11:59PM 46.1036 -114.3472 307° West 392 451 40,000  Level Salt Lake Center
12:00AM 46.1664 -114.4733 306° West 391 450 40,000  Level Salt Lake Center
12:01AM 46.2289 -114.5975 306° West 385 443 40,000  Level Salt Lake Center
12:02AM 46.2908 -114.7211 306° West 382 440 40,000  Level Salt Lake Center
12:03AM 46.3519 -114.8464 305° West 381 438 40,000  Level Salt Lake Center
12:04AM 46.4131 -114.9692 306° West 378 435 40,000  Level Salt Lake Center
12:05AM 46.4739 -115.0928 306° West 377 434 40,000 -300 Level Salt Lake Center
12:06AM 46.5392 -115.2261 305° West 375 432 39,400 -1,260 Descending Salt Lake Center
12:07AM 46.5986 -115.3511 305° West 376 433 37,500 -2,220 Descending Salt Lake Center
12:08AM 46.6681 -115.4958 305° West 366 421 34,600 -2,280 Descending Seattle Center
12:09AM 46.7233 -115.6128 305° West 355 409 32,500 -2,040 Descending Seattle Center
12:10AM 46.7772 -115.7203 306° West 333 383 30,600 -1,920 Descending Seattle Center
12:11AM 46.8269 -115.8244 305° West 317 365 28,700 -1,860 Descending Seattle Center
12:12AM 46.8758 -115.9261 305° West 308 354 26,900 -1,800 Descending Seattle Center
12:13AM 46.9250 -116.0314 304° West 313 360 25,100 -1,800 Descending Seattle Center
12:14AM 46.9725 -116.1311 305° West 302 348 23,300 -1,740 Descending Seattle Center
12:15AM 47.0178 -116.2278 305° West 291 335 21,600 -1,740 Descending Seattle Center
12:16AM 47.0642 -116.3267 305° West 293 337 19,900 -1,680 Descending Seattle Center
12:17AM 47.1078 -116.4203 304° West 285 328 18,300 -1,620 Descending Seattle Center
12:18AM 47.1528 -116.5164 305° West 284 327 16,700 -1,680 Descending Seattle Center
12:19AM 47.1978 -116.6114 305° West 282 325 15,000 -1,560 Descending Seattle Center
12:20AM 47.2411 -116.7006 306° West 269 310 13,600 -1,200 Descending Seattle Center
12:21AM 47.2947 -116.7864 313° West 286 329 12,700 -1,380 Descending Seattle Center
12:22AM 47.3472 -116.8728 312° West 284 327 10,900 -1,560 Descending Seattle Center
12:23AM 47.4064 -116.9667 313° West 274 315 9,600 -1,260 Descending Seattle Center
12:24AM 47.4544 -117.0464 312° West 261 300 8,400 -1,020 Descending Seattle Center
12:25AM 47.5031 -117.1250 312° West 260 299 7,600 -900 Descending Seattle Center
12:26AM 47.5494 -117.2039 311° West 259 298 6,700 -1,020 Descending Seattle Center
12:27AM 47.5958 -117.2831 311° West 257 296 5,600 -1,200 Descending Seattle Center
12:28AM 47.6372 -117.3508 312° West 238 274 4,300 -840 Descending Seattle Center
12:29AM 47.6769 -117.4194 311° West 214 246 4,000 -480 Descending Seattle Center
12:30AM 47.6681 -117.4636 253° West 146 168 3,400 -660 Descending Seattle Center
12:31AM 47.6428 -117.5014 225° Southwest 131 151 2,700 -600 Descending Seattle Center
12:32AM 47.6189 -117.5369 225° Southwest 126 145 2,300 -180 Descending Seattle Center
12:33AM 47.6183 -117.5408 258° West 56 64 2,400 60 Climbing Seattle Center